メインページ
METAR-TAF:

METAR-TAF

空港 :

マイノット, ノースダコタ州, アメリカ合衆国

緯度: 48-15-34N, 経度: 101-16-49W, 海抜: 523m

現時点の気象観測

当レポートは25分前の05:54(UTC)に作成
の風 11kt
気温 -14°C
湿度 60%
気圧 1033 hPa
視程: 16.1km
晴天

METAR: KMOT 200554Z AUTO 18011KT 10SM CLR M14/M20 A3050 RMK AO2 SLP375 T11441200 11111 21161 410941217 56016

時間: 00:19 (06:19 UTC)

予報

当レポートは59分前の05:20(UTC)に作成
予報は20日の 06時(UTC)から 21日の 06時(UTC)まで有効
南/南西の風 12kt
視程: 10km
晴天

TAF: KMOT 200520Z 2006/2106 21012KT P6SM SKC

4,000以上の空港の気象観測と天気予報(METAR報とTAF報)

利用可能な観測所は地図上に黄色い丸と赤い丸で示す。

丸の上にカーソルを重ねると観測所名を参照できる。

次にクリックすると気象観測と天気予報を参照できる。

マップの切り替え:黒色「×」印の緑ボタンをクリックして拡大、「-」印の緑ボタンをクリックして縮小、緑色の三角印をクリックして隣りの地図に切り替え


METAR-TAF: